Time;durP1;ratioP1;P1;durP2;ratioP2;P2;SDS_P1;SDS_P2;PMS_P1;PMS_P2;Temp;Humidity;BMP_temperature;BMP_pressure;BME280_temperature;BME280_humidity;BME280_pressure;Samples;Min_cycle;Max_cycle;Signal;HPM_P1;HPM_P2
2024/01/07 00:01:10;;;;;;;2.77;2.00;;;5.30;99.90;;;;;;5076349;28;20441;-79
2024/01/07 00:03:41;;;;;;;3.40;1.40;;;5.30;99.90;;;;;;5078650;28;20429;-79
2024/01/07 00:06:07;;;;;;;6.10;1.93;;;5.30;99.90;;;;;;5081033;28;20480;-79
2024/01/07 00:08:34;;;;;;;10.27;1.70;;;5.30;99.90;;;;;;5074894;28;20465;-79
2024/01/07 00:11:01;;;;;;;6.30;2.33;;;5.30;99.90;;;;;;5075310;28;20791;-79
2024/01/07 00:13:27;;;;;;;8.17;1.80;;;5.30;99.90;;;;;;5075133;28;20445;-79
2024/01/07 00:15:55;;;;;;;8.67;2.80;;;5.30;99.90;;;;;;5074879;28;20441;-79
2024/01/07 00:18:23;;;;;;;6.67;2.23;;;5.30;99.90;;;;;;5074522;28;20583;-79
2024/01/07 00:20:51;;;;;;;4.83;2.93;;;5.30;99.90;;;;;;5075130;28;20484;-79
2024/01/07 00:23:18;;;;;;;5.90;3.17;;;5.30;99.90;;;;;;5074698;28;20934;-79
2024/01/07 00:25:45;;;;;;;6.73;2.27;;;5.30;99.90;;;;;;5075078;28;20865;-79
2024/01/07 00:28:11;;;;;;;4.30;1.80;;;5.30;99.90;;;;;;5075010;28;20467;-79
2024/01/07 00:30:38;;;;;;;3.30;1.63;;;5.30;99.90;;;;;;5074792;28;20441;-79
2024/01/07 00:33:05;;;;;;;3.83;2.83;;;5.30;99.90;;;;;;5074878;28;20444;-79
2024/01/07 00:35:32;;;;;;;4.53;2.30;;;5.30;99.90;;;;;;5074651;28;20456;-79
2024/01/07 00:38:00;;;;;;;5.87;1.73;;;5.30;99.90;;;;;;5074622;28;21008;-79
2024/01/07 00:40:26;;;;;;;5.03;1.93;;;5.40;99.90;;;;;;5074783;28;20792;-79
2024/01/07 00:42:53;;;;;;;7.23;3.20;;;5.40;99.90;;;;;;5074955;28;20445;-79
2024/01/07 00:45:21;;;;;;;3.40;2.30;;;5.40;99.90;;;;;;5074405;28;20448;-79
2024/01/07 00:47:48;;;;;;;5.43;2.20;;;5.30;99.90;;;;;;5074272;28;20518;-79
2024/01/07 00:50:14;;;;;;;4.47;2.50;;;5.30;99.90;;;;;;5074256;28;20452;-79
2024/01/07 00:52:43;;;;;;;4.03;1.90;;;5.30;99.90;;;;;;5074502;28;20490;-79
2024/01/07 00:55:11;;;;;;;1.57;1.37;;;5.30;99.90;;;;;;5074582;28;20483;-79
2024/01/07 00:57:37;;;;;;;3.50;1.83;;;5.30;99.90;;;;;;5074285;28;20859;-79
2024/01/07 01:00:07;;;;;;;3.47;3.10;;;5.30;99.90;;;;;;5074461;28;20448;-79
2024/01/07 01:02:35;;;;;;;7.43;2.20;;;5.30;99.90;;;;;;5074452;28;20520;-79
2024/01/07 01:05:02;;;;;;;4.83;2.50;;;5.30;99.90;;;;;;5074004;28;20821;-79
2024/01/07 01:07:29;;;;;;;4.77;2.17;;;5.20;99.90;;;;;;5074191;28;20425;-79
2024/01/07 01:09:55;;;;;;;2.90;1.80;;;5.30;99.90;;;;;;5073771;28;20441;-79
2024/01/07 01:12:23;;;;;;;3.97;2.10;;;5.30;99.90;;;;;;5074251;28;20451;-79
2024/01/07 01:14:50;;;;;;;3.93;1.97;;;5.30;99.90;;;;;;5073932;28;20437;-79
2024/01/07 01:17:17;;;;;;;6.03;2.33;;;5.20;99.90;;;;;;5074145;28;20527;-79
2024/01/07 01:19:44;;;;;;;1.67;1.20;;;5.20;99.90;;;;;;5074013;28;20460;-79
2024/01/07 01:22:10;;;;;;;4.87;2.40;;;5.20;99.90;;;;;;5074022;28;20460;-79
2024/01/07 01:24:37;;;;;;;2.90;1.50;;;5.10;99.90;;;;;;5074243;28;20449;-79
2024/01/07 01:27:04;;;;;;;7.20;1.90;;;5.10;99.90;;;;;;5074143;28;20448;-79
2024/01/07 01:29:32;;;;;;;5.77;2.90;;;5.10;99.90;;;;;;5073984;28;20476;-79
2024/01/07 01:31:59;;;;;;;13.23;3.03;;;5.20;99.90;;;;;;5073852;28;20440;-79
2024/01/07 01:34:25;;;;;;;6.33;1.83;;;5.10;99.90;;;;;;5074113;28;20844;-79
2024/01/07 01:36:52;;;;;;;3.77;1.47;;;5.10;99.90;;;;;;5073783;28;20859;-79
2024/01/07 01:39:19;;;;;;;5.57;1.20;;;5.20;99.90;;;;;;5074054;28;20487;-79
2024/01/07 01:41:45;;;;;;;6.43;1.13;;;5.20;99.90;;;;;;5074455;28;20932;-79
2024/01/07 01:44:12;;;;;;;2.50;1.53;;;5.10;99.90;;;;;;5075189;28;20449;-79
2024/01/07 01:46:40;;;;;;;2.87;1.10;;;5.10;99.90;;;;;;5076169;28;20451;-79
2024/01/07 01:49:07;;;;;;;5.43;1.83;;;5.10;99.90;;;;;;5075751;28;20465;-79
2024/01/07 01:51:34;;;;;;;5.83;2.00;;;5.10;99.90;;;;;;5075037;28;20433;-79
2024/01/07 01:54:02;;;;;;;1.97;1.87;;;5.10;99.90;;;;;;5074330;28;20445;-79
2024/01/07 01:56:30;;;;;;;3.43;1.20;;;5.00;99.90;;;;;;5074070;28;20523;-79
2024/01/07 01:58:57;;;;;;;6.50;2.20;;;5.00;99.90;;;;;;5074350;28;20456;-79
2024/01/07 02:01:24;;;;;;;3.20;0.90;;;5.00;99.90;;;;;;5074240;28;20448;-79
2024/01/07 02:03:53;;;;;;;2.40;0.93;;;5.10;99.90;;;;;;5074127;28;20445;-79
2024/01/07 02:06:21;;;;;;;5.10;2.17;;;5.00;99.90;;;;;;5073890;28;20472;-79
2024/01/07 02:08:48;;;;;;;2.87;1.13;;;5.00;99.90;;;;;;5074322;28;20476;-79
2024/01/07 02:11:16;;;;;;;1.27;0.83;;;5.00;99.90;;;;;;5074780;28;20475;-79
2024/01/07 02:13:43;;;;;;;4.77;1.87;;;5.00;99.90;;;;;;5080191;28;20475;-79
2024/01/07 02:16:10;;;;;;;2.60;0.87;;;5.00;99.90;;;;;;5076306;28;20456;-79
2024/01/07 02:18:37;;;;;;;6.40;1.60;;;5.00;99.90;;;;;;5073287;28;20488;-79
2024/01/07 02:21:05;;;;;;;3.30;1.30;;;4.90;99.90;;;;;;5073058;28;20441;-79
2024/01/07 02:23:32;;;;;;;3.90;1.13;;;5.00;99.90;;;;;;5073356;28;20449;-79
2024/01/07 02:26:00;;;;;;;2.50;1.80;;;4.90;99.90;;;;;;5073335;28;20429;-79
2024/01/07 02:28:27;;;;;;;4.63;2.07;;;4.90;99.90;;;;;;5076555;28;20461;-79
2024/01/07 02:30:53;;;;;;;7.73;3.47;;;4.90;99.90;;;;;;5075939;28;20452;-79
2024/01/07 02:33:20;;;;;;;1.90;1.80;;;4.90;99.90;;;;;;5077574;28;20804;-79
2024/01/07 02:35:47;;;;;;;5.77;2.10;;;4.80;99.90;;;;;;5077639;28;20433;-79
2024/01/07 02:38:13;;;;;;;7.10;2.50;;;4.80;99.90;;;;;;5077539;28;20512;-79
2024/01/07 02:40:40;;;;;;;3.40;1.47;;;4.90;99.90;;;;;;5077223;28;20453;-79
2024/01/07 02:43:09;;;;;;;3.63;1.63;;;4.90;99.90;;;;;;5076908;28;20962;-79
2024/01/07 02:45:36;;;;;;;8.57;2.63;;;4.90;99.90;;;;;;5077385;28;20459;-79
2024/01/07 02:48:02;;;;;;;2.63;2.00;;;4.90;99.90;;;;;;5077154;28;20468;-79
2024/01/07 02:50:29;;;;;;;5.03;2.13;;;4.90;99.90;;;;;;5076753;28;20890;-79
2024/01/07 02:52:56;;;;;;;4.87;2.37;;;4.80;99.90;;;;;;5076820;28;20443;-79
2024/01/07 02:55:22;;;;;;;7.87;3.20;;;4.80;99.90;;;;;;5076615;28;20862;-79
2024/01/07 02:57:49;;;;;;;3.40;1.57;;;4.80;99.90;;;;;;5076517;28;20945;-79
2024/01/07 03:00:18;;;;;;;10.97;2.17;;;4.80;99.90;;;;;;5076861;28;20449;-79
2024/01/07 03:02:45;;;;;;;3.47;2.40;;;4.80;99.90;;;;;;5076470;28;21016;-79
2024/01/07 03:05:11;;;;;;;5.13;2.73;;;4.80;99.90;;;;;;5076662;28;20784;-79
2024/01/07 03:07:39;;;;;;;11.30;2.60;;;4.80;99.90;;;;;;5077086;28;20865;-79
2024/01/07 03:10:06;;;;;;;6.57;2.17;;;4.80;99.90;;;;;;5076887;28;20488;-79
2024/01/07 03:12:33;;;;;;;5.50;2.30;;;4.90;99.90;;;;;;5076959;28;20449;-79
2024/01/07 03:15:00;;;;;;;4.97;3.07;;;4.80;99.90;;;;;;5077070;28;20468;-79
2024/01/07 03:17:28;;;;;;;6.47;2.60;;;4.80;99.90;;;;;;5076677;28;20477;-79
2024/01/07 03:19:54;;;;;;;5.73;2.03;;;4.80;99.90;;;;;;5077034;28;20444;-79
2024/01/07 03:22:21;;;;;;;4.90;2.07;;;4.80;99.90;;;;;;5076626;28;20471;-79
2024/01/07 03:24:48;;;;;;;3.30;1.83;;;4.80;99.90;;;;;;5076470;28;20448;-79
2024/01/07 03:27:14;;;;;;;5.63;2.13;;;4.80;99.90;;;;;;5076275;28;20936;-79
2024/01/07 03:29:41;;;;;;;4.73;2.10;;;4.80;99.90;;;;;;5077500;28;20469;-79
2024/01/07 03:32:08;;;;;;;2.80;1.60;;;4.90;99.90;;;;;;5076371;28;20452;-79
2024/01/07 03:34:36;;;;;;;6.73;2.80;;;4.90;99.90;;;;;;5076654;28;20453;-79
2024/01/07 03:37:02;;;;;;;3.87;2.57;;;4.80;99.90;;;;;;5076318;28;20445;-79
2024/01/07 03:39:29;;;;;;;6.53;3.80;;;4.80;99.90;;;;;;5076397;28;20461;-79
2024/01/07 03:41:56;;;;;;;4.63;2.70;;;4.70;99.90;;;;;;5075500;28;20441;-79
2024/01/07 03:44:23;;;;;;;4.10;1.80;;;4.70;99.90;;;;;;5076351;28;20571;-79
2024/01/07 03:46:50;;;;;;;5.67;1.83;;;4.70;99.90;;;;;;5076316;28;20440;-79
2024/01/07 03:49:18;;;;;;;4.40;2.60;;;4.70;99.90;;;;;;5075870;28;20973;-79
2024/01/07 03:51:46;;;;;;;6.57;2.80;;;4.70;99.90;;;;;;5076089;28;20477;-79
2024/01/07 03:54:13;;;;;;;9.10;2.37;;;4.70;99.90;;;;;;5076058;28;20815;-79
2024/01/07 03:56:39;;;;;;;3.33;2.30;;;4.70;99.90;;;;;;5076094;28;20444;-79
2024/01/07 03:59:06;;;;;;;5.43;1.80;;;4.70;99.90;;;;;;5075868;28;20530;-79
2024/01/07 04:01:33;;;;;;;2.87;2.10;;;4.70;99.90;;;;;;5075880;28;20488;-79
2024/01/07 04:04:00;;;;;;;5.60;2.80;;;4.60;99.90;;;;;;5076074;28;20445;-79
2024/01/07 04:06:27;;;;;;;5.60;1.80;;;4.60;99.90;;;;;;5075192;28;20487;-79
2024/01/07 04:08:55;;;;;;;6.67;2.10;;;4.60;99.90;;;;;;5075544;28;20468;-78
2024/01/07 04:11:21;;;;;;;7.87;2.70;;;4.60;99.90;;;;;;5075683;28;20447;-79
2024/01/07 04:13:48;;;;;;;5.10;2.17;;;4.50;99.90;;;;;;5076126;28;20440;-79
2024/01/07 04:16:18;;;;;;;4.93;2.10;;;4.50;99.90;;;;;;5075948;28;20441;-79
2024/01/07 04:18:45;;;;;;;3.13;2.37;;;4.50;99.90;;;;;;5075808;28;20546;-79
2024/01/07 04:21:12;;;;;;;4.43;1.63;;;4.50;99.90;;;;;;5075802;28;20468;-79
2024/01/07 04:23:40;;;;;;;4.87;1.93;;;4.50;99.90;;;;;;5075468;28;20445;-79
2024/01/07 04:26:08;;;;;;;5.60;3.10;;;4.40;99.90;;;;;;5078961;28;20479;-78
2024/01/07 04:28:35;;;;;;;3.20;1.80;;;4.40;99.90;;;;;;5079856;28;20997;-79
2024/01/07 04:31:02;;;;;;;6.03;1.80;;;4.50;99.90;;;;;;5075073;28;20449;-79
2024/01/07 04:33:28;;;;;;;10.00;2.00;;;4.50;99.90;;;;;;5074775;28;20453;-79
2024/01/07 04:35:57;;;;;;;8.73;3.33;;;4.40;99.90;;;;;;5074817;28;20457;-79
2024/01/07 04:38:24;;;;;;;5.10;2.03;;;4.40;99.90;;;;;;5075129;28;20538;-79
2024/01/07 04:40:51;;;;;;;11.87;2.67;;;4.30;99.90;;;;;;5074861;28;20452;-79
2024/01/07 04:43:20;;;;;;;5.30;1.93;;;4.30;99.90;;;;;;5074903;28;20528;-79
2024/01/07 04:45:47;;;;;;;4.20;1.80;;;4.30;99.90;;;;;;5074612;28;20484;-78
2024/01/07 04:48:14;;;;;;;6.20;2.37;;;4.30;99.90;;;;;;5074673;28;21002;-78
2024/01/07 04:50:41;;;;;;;3.53;1.50;;;4.40;99.90;;;;;;5074254;28;20433;-78
2024/01/07 04:53:08;;;;;;;2.67;1.27;;;4.30;99.90;;;;;;5074065;28;20483;-79
2024/01/07 04:55:34;;;;;;;4.33;1.87;;;4.30;99.90;;;;;;5074250;28;20433;-78
2024/01/07 04:58:01;;;;;;;2.73;2.10;;;4.40;99.90;;;;;;5074082;28;20487;-79
2024/01/07 05:00:29;;;;;;;2.70;2.50;;;4.40;99.90;;;;;;5074165;28;20202;-79
2024/01/07 05:02:56;;;;;;;3.80;2.53;;;4.40;99.90;;;;;;5074303;28;20456;-78
2024/01/07 05:05:22;;;;;;;2.37;1.87;;;4.40;99.90;;;;;;5074254;28;20504;-78
2024/01/07 05:07:49;;;;;;;5.00;2.27;;;4.40;99.90;;;;;;5074121;28;20841;-79
2024/01/07 05:10:16;;;;;;;4.90;1.77;;;4.40;99.90;;;;;;5074154;28;20433;-78
2024/01/07 05:12:43;;;;;;;6.40;2.53;;;4.40;99.90;;;;;;5074133;28;20447;-78
2024/01/07 05:15:10;;;;;;;3.60;1.80;;;4.40;99.90;;;;;;5074190;28;20449;-78
2024/01/07 05:17:38;;;;;;;1.40;1.30;;;4.40;99.90;;;;;;5073904;28;21013;-79
2024/01/07 05:20:07;;;;;;;5.23;2.57;;;4.30;99.90;;;;;;5074006;28;20452;-79
2024/01/07 05:22:34;;;;;;;6.17;1.90;;;4.40;99.90;;;;;;5073879;28;20528;-78
2024/01/07 05:25:01;;;;;;;2.40;1.23;;;4.30;99.90;;;;;;5073996;28;20486;-79
2024/01/07 05:27:28;;;;;;;4.97;3.17;;;4.20;99.90;;;;;;5074201;28;20448;-79
2024/01/07 05:29:55;;;;;;;4.37;1.57;;;4.20;99.90;;;;;;5074047;28;20472;-79
2024/01/07 05:32:22;;;;;;;4.00;1.83;;;4.30;99.90;;;;;;5075006;28;20473;-79
2024/01/07 05:34:50;;;;;;;4.10;1.70;;;4.20;99.90;;;;;;5074748;28;20945;-79
2024/01/07 05:37:17;;;;;;;6.27;2.30;;;4.20;99.90;;;;;;5074680;28;20448;-79
2024/01/07 05:39:44;;;;;;;1.43;1.27;;;4.20;99.90;;;;;;5075622;28;20517;-79
2024/01/07 05:42:10;;;;;;;2.20;1.47;;;4.10;99.90;;;;;;5075284;28;20448;-79
2024/01/07 05:44:37;;;;;;;2.13;1.50;;;4.10;99.90;;;;;;5075090;28;20437;-79
2024/01/07 05:47:04;;;;;;;3.60;1.57;;;4.10;99.90;;;;;;5075437;28;20445;-79
2024/01/07 05:49:31;;;;;;;2.70;1.23;;;4.20;99.90;;;;;;5074438;28;20452;-79
2024/01/07 05:51:59;;;;;;;4.53;2.40;;;4.10;99.90;;;;;;5074743;28;20449;-79
2024/01/07 05:54:25;;;;;;;4.17;1.67;;;4.10;99.90;;;;;;5074527;28;20445;-79
2024/01/07 05:56:52;;;;;;;2.83;2.63;;;4.10;99.90;;;;;;5074787;28;20452;-79
2024/01/07 05:59:19;;;;;;;2.70;1.50;;;4.10;99.90;;;;;;5074633;28;20516;-79
2024/01/07 06:01:46;;;;;;;3.07;1.80;;;4.00;99.90;;;;;;5074223;28;20507;-79
2024/01/07 06:04:13;;;;;;;1.67;0.83;;;4.00;99.90;;;;;;5074375;28;20449;-79
2024/01/07 06:06:40;;;;;;;4.50;2.47;;;4.00;99.90;;;;;;5077889;28;20493;-79
2024/01/07 06:09:08;;;;;;;1.90;1.50;;;3.90;99.90;;;;;;5077922;28;20465;-79
2024/01/07 06:11:34;;;;;;;3.33;1.30;;;4.00;99.90;;;;;;5078520;28;20437;-79
2024/01/07 06:14:01;;;;;;;2.60;1.43;;;3.80;99.90;;;;;;5078441;28;20499;-79
2024/01/07 06:16:28;;;;;;;3.23;1.47;;;3.80;99.90;;;;;;5077800;28;21003;-79
2024/01/07 06:18:54;;;;;;;1.50;1.13;;;3.80;99.90;;;;;;5078054;28;21017;-79
2024/01/07 06:21:21;;;;;;;1.93;1.60;;;3.80;99.90;;;;;;5078497;28;20813;-79
2024/01/07 06:23:48;;;;;;;1.70;1.00;;;3.80;99.90;;;;;;5078351;28;20440;-79
2024/01/07 06:26:16;;;;;;;4.30;2.10;;;3.80;99.90;;;;;;5078101;28;20448;-79
2024/01/07 06:28:43;;;;;;;2.30;1.60;;;3.80;99.90;;;;;;5077700;28;20897;-79
2024/01/07 06:31:09;;;;;;;6.73;2.37;;;3.80;99.90;;;;;;5078104;28;20440;-79
2024/01/07 06:33:36;;;;;;;1.37;1.20;;;3.70;99.90;;;;;;5078226;28;20444;-79
2024/01/07 06:36:03;;;;;;;1.57;1.47;;;3.70;99.90;;;;;;5086062;28;20440;-79
2024/01/07 06:38:30;;;;;;;1.63;1.00;;;3.70;99.90;;;;;;5076830;28;20488;-79
2024/01/07 06:41:00;;;;;;;2.97;1.60;;;3.70;99.90;;;;;;5076832;28;20446;-79
2024/01/07 06:43:28;;;;;;;2.83;1.10;;;3.70;99.90;;;;;;5077028;28;20436;-79
2024/01/07 06:45:55;;;;;;;3.67;1.80;;;3.70;99.90;;;;;;5076924;28;20445;-79
2024/01/07 06:48:22;;;;;;;2.03;1.13;;;3.70;99.90;;;;;;5076776;28;20464;-79
2024/01/07 06:50:48;;;;;;;1.80;1.53;;;3.70;99.90;;;;;;5076637;28;20945;-78
2024/01/07 06:53:16;;;;;;;3.70;2.37;;;3.70;99.90;;;;;;5077290;28;20471;-78
2024/01/07 06:55:43;;;;;;;1.93;1.03;;;3.70;99.90;;;;;;5076511;28;20962;-78
2024/01/07 06:58:09;;;;;;;4.03;1.43;;;3.70;99.90;;;;;;5076326;28;20472;-78
2024/01/07 07:00:37;;;;;;;1.70;1.43;;;3.80;99.90;;;;;;5076895;28;20451;-79
2024/01/07 07:03:05;;;;;;;4.30;1.80;;;3.80;99.90;;;;;;5077421;28;20578;-78
2024/01/07 07:05:31;;;;;;;4.37;2.20;;;3.80;99.90;;;;;;5076520;28;20476;-79
2024/01/07 07:07:58;;;;;;;4.07;2.67;;;3.70;99.90;;;;;;5076604;28;20465;-78
2024/01/07 07:10:25;;;;;;;2.57;2.37;;;3.80;99.90;;;;;;5076662;28;20449;-78
2024/01/07 07:12:52;;;;;;;3.37;2.00;;;3.60;99.90;;;;;;5077000;28;20445;-79
2024/01/07 07:15:18;;;;;;;1.57;1.20;;;3.70;99.90;;;;;;5076641;28;20436;-79
2024/01/07 07:17:46;;;;;;;2.40;1.83;;;3.60;99.90;;;;;;5076879;28;20464;-79
2024/01/07 07:20:13;;;;;;;1.40;0.87;;;3.60;99.90;;;;;;5077087;28;20534;-79
2024/01/07 07:22:40;;;;;;;5.83;1.97;;;3.60;99.90;;;;;;5076898;28;20922;-79
2024/01/07 07:25:07;;;;;;;2.10;1.33;;;3.50;99.90;;;;;;5077623;28;20828;-79
2024/01/07 07:27:34;;;;;;;2.20;1.53;;;3.50;99.90;;;;;;5076825;28;20516;-79
2024/01/07 07:30:01;;;;;;;2.97;1.90;;;3.50;99.90;;;;;;5076688;28;20436;-78
2024/01/07 07:32:27;;;;;;;2.60;0.70;;;3.40;99.90;;;;;;5077326;28;20448;-79
2024/01/07 07:34:55;;;;;;;1.90;1.73;;;3.40;99.90;;;;;;5077019;28;20470;-79
2024/01/07 07:37:22;;;;;;;2.40;1.67;;;3.40;99.90;;;;;;5077427;28;20470;-79
2024/01/07 07:39:49;;;;;;;2.67;1.97;;;3.50;99.90;;;;;;5076654;28;20489;-79
2024/01/07 07:42:16;;;;;;;1.70;1.10;;;3.40;99.90;;;;;;5076782;28;20449;-79
2024/01/07 07:44:43;;;;;;;1.10;0.90;;;3.50;99.90;;;;;;5077115;28;20503;-79
2024/01/07 07:47:11;;;;;;;4.13;1.93;;;3.40;99.90;;;;;;5077274;28;20452;-79
2024/01/07 07:49:39;;;;;;;3.97;2.97;;;3.40;99.90;;;;;;5076951;28;20467;-79
2024/01/07 07:52:08;;;;;;;5.30;2.77;;;3.40;99.90;;;;;;5076944;28;20518;-78
2024/01/07 07:54:35;;;;;;;1.30;1.00;;;3.40;99.90;;;;;;5076926;28;20506;-79
2024/01/07 07:57:01;;;;;;;2.97;1.90;;;3.40;99.90;;;;;;5076942;28;20456;-78
2024/01/07 07:59:28;;;;;;;4.83;2.23;;;3.40;99.90;;;;;;5076710;28;20516;-79
2024/01/07 08:01:55;;;;;;;1.13;1.03;;;3.30;99.90;;;;;;5076745;28;20468;-78
2024/01/07 08:04:22;;;;;;;2.40;1.73;;;3.20;99.90;;;;;;5076773;28;20448;-78
2024/01/07 08:06:49;;;;;;;2.43;1.90;;;3.20;99.90;;;;;;5077065;28;20479;-78
2024/01/07 08:09:17;;;;;;;4.03;2.70;;;3.20;99.90;;;;;;5077263;28;20981;-78
2024/01/07 08:11:43;;;;;;;4.00;2.07;;;3.20;99.90;;;;;;5076791;28;20859;-78
2024/01/07 08:14:10;;;;;;;3.13;1.43;;;3.30;99.90;;;;;;5076117;28;20868;-79
2024/01/07 08:16:37;;;;;;;2.03;1.13;;;3.30;99.90;;;;;;5076862;28;20445;-79
2024/01/07 08:19:04;;;;;;;2.37;1.93;;;3.10;99.90;;;;;;5076636;28;20493;-78
2024/01/07 08:21:30;;;;;;;3.70;2.33;;;3.20;99.90;;;;;;5076448;28;20453;-78
2024/01/07 08:23:57;;;;;;;2.23;2.03;;;3.10;99.90;;;;;;5076070;28;20452;-78
2024/01/07 08:26:25;;;;;;;0.93;0.93;;;3.10;99.90;;;;;;5075793;28;20441;-78
2024/01/07 08:28:52;;;;;;;4.93;1.40;;;3.10;99.90;;;;;;5075323;28;20464;-78
2024/01/07 08:31:19;;;;;;;1.37;1.27;;;3.00;99.90;;;;;;5075938;28;20449;-78
2024/01/07 08:33:46;;;;;;;2.90;2.17;;;3.00;99.90;;;;;;5076021;28;20448;-78
2024/01/07 08:36:12;;;;;;;3.47;1.60;;;2.90;99.90;;;;;;5075973;28;20437;-78
2024/01/07 08:38:39;;;;;;;1.27;1.17;;;2.90;99.90;;;;;;5075703;28;20469;-78
2024/01/07 08:41:05;;;;;;;2.00;0.70;;;2.90;99.90;;;;;;5075851;28;20449;-78
2024/01/07 08:43:34;;;;;;;1.20;0.90;;;3.00;99.90;;;;;;5076097;28;20444;-78
2024/01/07 08:46:00;;;;;;;2.80;1.33;;;3.00;99.90;;;;;;5079017;28;20988;-78
2024/01/07 08:48:27;;;;;;;2.97;2.00;;;3.00;99.90;;;;;;5074606;28;20472;-78
2024/01/07 08:50:54;;;;;;;2.47;0.80;;;3.00;99.90;;;;;;5074613;28;20832;-78
2024/01/07 08:53:22;;;;;;;2.00;1.13;;;3.00;99.90;;;;;;5075368;28;20444;-78
2024/01/07 08:55:49;;;;;;;1.90;1.13;;;2.90;99.90;;;;;;5075968;28;20449;-79
2024/01/07 08:58:16;;;;;;;2.00;0.90;;;3.00;99.90;;;;;;5076023;28;20518;-78
2024/01/07 09:00:44;;;;;;;5.20;1.20;;;3.10;99.90;;;;;;5076288;28;20461;-79
2024/01/07 09:03:11;;;;;;;1.87;1.53;;;3.10;99.90;;;;;;5075966;28;20823;-78
2024/01/07 09:05:38;;;;;;;1.70;1.40;;;3.20;99.90;;;;;;5074498;28;20472;-79
2024/01/07 09:08:06;;;;;;;1.43;0.70;;;3.20;99.90;;;;;;5075256;28;20977;-78
2024/01/07 09:10:33;;;;;;;2.23;1.10;;;3.10;99.90;;;;;;5075625;28;20807;-78
2024/01/07 09:13:00;;;;;;;4.00;1.10;;;3.00;99.90;;;;;;5076069;28;20502;-78
2024/01/07 09:15:27;;;;;;;1.37;0.90;;;3.00;99.90;;;;;;5076960;28;20448;-78
2024/01/07 09:17:54;;;;;;;1.43;1.20;;;3.00;99.90;;;;;;5076116;28;20457;-78
2024/01/07 09:20:21;;;;;;;2.53;1.60;;;3.00;99.90;;;;;;5075246;28;20484;-78
2024/01/07 09:22:48;;;;;;;1.73;1.33;;;3.10;99.90;;;;;;5076099;28;20445;-78
2024/01/07 09:25:15;;;;;;;2.30;1.43;;;3.10;99.90;;;;;;5076847;28;20479;-78
2024/01/07 09:27:42;;;;;;;7.60;2.20;;;3.10;99.90;;;;;;5075549;28;20475;-79
2024/01/07 09:30:14;;;;;;;2.60;1.67;;;3.10;99.90;;;;;;5076803;28;20547;-78
2024/01/07 09:32:40;;;;;;;1.67;1.27;;;3.10;99.90;;;;;;5076046;28;20432;-78
2024/01/07 09:35:09;;;;;;;1.80;0.93;;;3.10;99.90;;;;;;5075781;28;20448;-78
2024/01/07 09:37:36;;;;;;;1.03;0.50;;;3.00;99.90;;;;;;5074998;28;20934;-78
2024/01/07 09:40:05;;;;;;;3.83;1.13;;;3.10;99.90;;;;;;5075050;28;20512;-78
2024/01/07 09:42:32;;;;;;;3.63;0.87;;;3.00;99.90;;;;;;5075473;28;20425;-78
2024/01/07 09:45:02;;;;;;;2.60;1.77;;;3.00;99.90;;;;;;5075242;28;20441;-78
2024/01/07 09:47:29;;;;;;;1.33;1.23;;;3.00;99.90;;;;;;5074578;28;20950;-78
2024/01/07 09:49:56;;;;;;;1.40;0.40;;;3.00;99.90;;;;;;5075093;28;20483;-78
2024/01/07 09:52:26;;;;;;;1.53;1.07;;;3.10;99.90;;;;;;5074506;28;20449;-78
2024/01/07 09:54:58;;;;;;;1.73;0.87;;;3.10;99.90;;;;;;5074864;28;20482;-78
2024/01/07 09:57:26;;;;;;;2.30;1.20;;;3.20;99.90;;;;;;5075243;28;20425;-78
2024/01/07 09:59:53;;;;;;;1.43;1.33;;;3.30;99.90;;;;;;5075228;28;20480;-78
2024/01/07 10:02:20;;;;;;;2.40;0.90;;;3.40;99.90;;;;;;5074766;28;20444;-78
2024/01/07 10:04:48;;;;;;;4.33;3.17;;;3.50;99.90;;;;;;5074390;28;20433;-78
2024/01/07 10:07:15;;;;;;;1.73;1.47;;;3.40;99.90;;;;;;5073889;28;20544;-78
2024/01/07 10:09:43;;;;;;;2.10;1.03;;;3.40;99.90;;;;;;5073903;28;20468;-78
2024/01/07 10:12:12;;;;;;;1.67;1.37;;;3.50;99.90;;;;;;5074828;28;20456;-78
2024/01/07 10:14:39;;;;;;;3.47;2.00;;;3.50;99.90;;;;;;5074122;28;20541;-79
2024/01/07 10:17:15;;;;;;;0.87;0.60;;;3.60;99.90;;;;;;5074024;28;20483;-78
2024/01/07 10:19:44;;;;;;;1.57;0.93;;;3.50;99.90;;;;;;5074154;28;20516;-78
2024/01/07 10:22:14;;;;;;;0.70;0.70;;;3.40;99.90;;;;;;5074066;28;20539;-78
2024/01/07 10:24:43;;;;;;;0.83;0.60;;;3.40;99.90;;;;;;5073930;28;20452;-78
2024/01/07 10:27:10;;;;;;;1.10;0.60;;;3.30;99.90;;;;;;5073680;28;20434;-78
2024/01/07 10:29:38;;;;;;;2.50;1.17;;;3.30;99.90;;;;;;5074511;28;20484;-79
2024/01/07 10:32:06;;;;;;;3.33;1.13;;;3.30;99.90;;;;;;5078343;28;20441;-79
2024/01/07 10:34:33;;;;;;;4.53;1.10;;;3.30;99.90;;;;;;5078880;28;20455;-79
2024/01/07 10:37:01;;;;;;;1.53;0.67;;;3.20;99.90;;;;;;5079980;28;20449;-79
2024/01/07 10:39:28;;;;;;;0.70;0.70;;;3.20;99.90;;;;;;5080256;28;20464;-79
2024/01/07 10:41:58;;;;;;;2.27;1.60;;;3.20;99.90;;;;;;5079728;28;20477;-79
2024/01/07 10:44:26;;;;;;;2.30;0.90;;;3.20;99.90;;;;;;5077664;28;20437;-79
2024/01/07 10:46:55;;;;;;;2.10;1.10;;;3.20;99.90;;;;;;5077665;28;20444;-79
2024/01/07 10:49:23;;;;;;;3.30;1.17;;;3.30;99.90;;;;;;5077417;28;20981;-79
2024/01/07 10:52:04;;;;;;;2.00;1.03;;;3.20;99.90;;;;;;5079495;28;20503;-79
2024/01/07 10:54:33;;;;;;;3.20;1.83;;;3.20;99.90;;;;;;5080977;28;20461;-79
2024/01/07 10:57:10;;;;;;;4.57;1.37;;;3.20;99.90;;;;;;5086775;28;20511;-78
2024/01/07 10:59:37;;;;;;;2.53;1.63;;;3.10;99.90;;;;;;5077778;28;20472;-79
2024/01/07 11:02:04;;;;;;;4.13;1.90;;;3.20;99.90;;;;;;5078697;28;20938;-83
2024/01/07 11:04:38;;;;;;;1.37;1.13;;;3.10;99.90;;;;;;5082650;28;20496;-80
2024/01/07 11:07:24;;;;;;;0.93;0.93;;;3.10;99.90;;;;;;5081987;28;20519;-80
2024/01/07 11:10:03;;;;;;;1.17;1.00;;;3.20;99.90;;;;;;5082431;28;20425;-81
2024/01/07 11:12:32;;;;;;;1.90;1.20;;;3.10;99.90;;;;;;5082281;28;20922;-81
2024/01/07 11:15:00;;;;;;;0.93;0.63;;;3.10;99.90;;;;;;5081448;28;20465;-81
2024/01/07 11:17:45;;;;;;;0.80;0.80;;;3.00;99.90;;;;;;5081932;28;20463;-80
2024/01/07 11:20:21;;;;;;;1.47;1.37;;;2.90;99.90;;;;;;5081555;28;20468;-80
2024/01/07 11:22:47;;;;;;;2.33;1.07;;;2.90;99.90;;;;;;5081954;28;20471;-80
2024/01/07 11:25:31;;;;;;;0.63;0.63;;;2.90;99.90;;;;;;5082370;28;20445;-81
2024/01/07 11:28:02;;;;;;;0.70;0.63;;;2.80;99.90;;;;;;5081870;28;20591;-80
2024/01/07 11:30:29;;;;;;;1.83;1.10;;;2.70;99.90;;;;;;5076682;28;20448;-79
2024/01/07 11:32:59;;;;;;;0.70;0.70;;;2.60;99.90;;;;;;5081297;28;20452;-80
2024/01/07 11:35:57;;;;;;;2.10;0.60;;;2.60;99.90;;;;;;5081462;28;20421;-79
2024/01/07 11:38:24;;;;;;;5.00;1.13;;;2.50;99.90;;;;;;5080650;28;20797;-81
2024/01/07 11:40:52;;;;;;;0.40;0.40;;;2.50;99.90;;;;;;5081054;28;20990;-80
2024/01/07 11:43:20;;;;;;;1.93;0.90;;;2.50;99.90;;;;;;5081173;28;20473;-80
2024/01/07 11:45:47;;;;;;;2.83;0.50;;;2.50;99.90;;;;;;5081067;28;20441;-80
2024/01/07 11:48:14;;;;;;;1.10;0.80;;;2.50;99.90;;;;;;5080401;28;20451;-81
2024/01/07 11:50:40;;;;;;;1.13;0.80;;;2.50;99.90;;;;;;5081911;28;20451;-80
2024/01/07 11:53:09;;;;;;;0.60;0.50;;;2.60;99.90;;;;;;5080885;28;20809;-80
2024/01/07 11:55:36;;;;;;;2.97;1.77;;;2.50;99.90;;;;;;5080990;28;20487;-80
2024/01/07 11:58:03;;;;;;;1.80;0.97;;;2.60;99.90;;;;;;5079732;28;20507;-80
2024/01/07 12:00:33;;;;;;;1.37;1.37;;;2.60;99.90;;;;;;5076990;28;21000;-80
2024/01/07 12:03:00;;;;;;;4.23;2.73;;;2.60;99.90;;;;;;5076035;28;20414;-80
2024/01/07 12:05:27;;;;;;;1.33;0.80;;;2.60;99.90;;;;;;5076922;28;21095;-80
2024/01/07 12:07:54;;;;;;;1.43;0.80;;;2.60;99.90;;;;;;5076844;28;20457;-80
2024/01/07 12:10:21;;;;;;;4.10;1.90;;;2.60;99.90;;;;;;5076783;28;20452;-80
2024/01/07 12:12:48;;;;;;;0.97;0.90;;;2.60;99.90;;;;;;5076510;28;20433;-80
2024/01/07 12:15:15;;;;;;;0.93;0.80;;;2.70;99.90;;;;;;5076505;28;20930;-80
2024/01/07 12:17:55;;;;;;;2.10;1.10;;;2.60;99.90;;;;;;5076437;28;20449;-80
2024/01/07 12:20:22;;;;;;;0.87;0.50;;;2.70;99.90;;;;;;5076760;28;20472;-80
2024/01/07 12:22:48;;;;;;;1.00;0.67;;;2.70;99.90;;;;;;5076965;28;20437;-80
2024/01/07 12:25:23;;;;;;;1.63;0.97;;;2.70;99.90;;;;;;5076528;28;20414;-80
2024/01/07 12:27:52;;;;;;;0.90;0.90;;;2.70;99.90;;;;;;5076755;28;20487;-79
2024/01/07 12:30:19;;;;;;;0.80;0.50;;;2.70;99.90;;;;;;5076705;28;20823;-80
2024/01/07 12:32:47;;;;;;;1.17;1.13;;;2.60;99.90;;;;;;5076777;28;20452;-80
2024/01/07 12:35:14;;;;;;;4.50;1.23;;;2.60;99.90;;;;;;5076829;28;20452;-80
2024/01/07 12:37:42;;;;;;;0.70;0.50;;;2.60;99.90;;;;;;5076248;28;20478;-80
2024/01/07 12:40:10;;;;;;;1.43;1.20;;;2.60;99.90;;;;;;5076478;28;20444;-80
2024/01/07 12:42:39;;;;;;;6.13;0.93;;;2.50;99.90;;;;;;5076637;28;20889;-80
2024/01/07 12:45:07;;;;;;;3.77;0.90;;;2.50;99.90;;;;;;5076362;28;20444;-80
2024/01/07 12:47:34;;;;;;;2.00;0.80;;;2.60;99.90;;;;;;5075874;28;20477;-80
2024/01/07 12:50:08;;;;;;;0.73;0.63;;;2.60;99.90;;;;;;5076094;28;20484;-80
2024/01/07 12:52:40;;;;;;;23.77;1.17;;;2.60;99.90;;;;;;5075823;28;20845;-80
2024/01/07 12:55:08;;;;;;;1.53;1.23;;;2.70;99.90;;;;;;5076304;28;20426;-79
2024/01/07 12:57:35;;;;;;;1.80;1.00;;;2.60;99.90;;;;;;5075882;28;20957;-79
2024/01/07 13:00:03;;;;;;;1.57;1.47;;;2.60;99.90;;;;;;5075393;28;20992;-80